sensor_id;sensor_type;location;lat;lon;timestamp;P1;durP1;ratioP1;P2;durP2;ratioP2
21018;SDS011;10667;51.056;3.732;2022-08-04T00:01:45;8.38;;;2.60;;
21018;SDS011;10667;51.056;3.732;2022-08-04T00:04:23;7.25;;;2.28;;
21018;SDS011;10667;51.056;3.732;2022-08-04T00:06:59;5.00;;;2.42;;
21018;SDS011;10667;51.056;3.732;2022-08-04T00:12:25;3.55;;;2.10;;
21018;SDS011;10667;51.056;3.732;2022-08-04T00:14:55;9.85;;;2.72;;
21018;SDS011;10667;51.056;3.732;2022-08-04T00:17:27;7.07;;;2.28;;
21018;SDS011;10667;51.056;3.732;2022-08-04T00:19:57;5.20;;;2.80;;
21018;SDS011;10667;51.056;3.732;2022-08-04T00:22:25;6.40;;;2.90;;
21018;SDS011;10667;51.056;3.732;2022-08-04T00:24:54;6.63;;;2.20;;
21018;SDS011;10667;51.056;3.732;2022-08-04T00:27:20;6.70;;;1.98;;
21018;SDS011;10667;51.056;3.732;2022-08-04T00:29:46;7.13;;;2.20;;
21018;SDS011;10667;51.056;3.732;2022-08-04T00:32:12;7.25;;;2.30;;
21018;SDS011;10667;51.056;3.732;2022-08-04T00:34:38;7.10;;;2.55;;
21018;SDS011;10667;51.056;3.732;2022-08-04T00:37:05;5.55;;;2.30;;
21018;SDS011;10667;51.056;3.732;2022-08-04T00:39:31;8.68;;;2.70;;
21018;SDS011;10667;51.056;3.732;2022-08-04T00:44:50;5.68;;;2.53;;
21018;SDS011;10667;51.056;3.732;2022-08-04T00:56:26;5.10;;;2.20;;
21018;SDS011;10667;51.056;3.732;2022-08-04T01:04:48;9.05;;;3.35;;
21018;SDS011;10667;51.056;3.732;2022-08-04T01:16:09;9.93;;;3.13;;
21018;SDS011;10667;51.056;3.732;2022-08-04T01:30:05;8.38;;;3.25;;
21018;SDS011;10667;51.056;3.732;2022-08-04T01:32:38;9.38;;;3.10;;
21018;SDS011;10667;51.056;3.732;2022-08-04T01:40:54;9.05;;;2.90;;
21018;SDS011;10667;51.056;3.732;2022-08-04T01:43:21;5.97;;;2.97;;
21018;SDS011;10667;51.056;3.732;2022-08-04T01:45:49;5.63;;;2.70;;
21018;SDS011;10667;51.056;3.732;2022-08-04T01:48:22;6.05;;;2.65;;
21018;SDS011;10667;51.056;3.732;2022-08-04T01:50:49;6.05;;;2.90;;
21018;SDS011;10667;51.056;3.732;2022-08-04T01:53:18;5.03;;;2.55;;
21018;SDS011;10667;51.056;3.732;2022-08-04T01:55:48;8.82;;;2.70;;
21018;SDS011;10667;51.056;3.732;2022-08-04T01:58:19;8.43;;;3.30;;
21018;SDS011;10667;51.056;3.732;2022-08-04T02:00:56;7.40;;;2.78;;
21018;SDS011;10667;51.056;3.732;2022-08-04T02:03:33;5.93;;;2.80;;
21018;SDS011;10667;51.056;3.732;2022-08-04T02:06:07;8.00;;;3.20;;
21018;SDS011;10667;51.056;3.732;2022-08-04T02:08:45;7.80;;;2.60;;
21018;SDS011;10667;51.056;3.732;2022-08-04T02:11:28;9.07;;;2.80;;
21018;SDS011;10667;51.056;3.732;2022-08-04T02:16:43;6.55;;;2.50;;
21018;SDS011;10667;51.056;3.732;2022-08-04T02:19:20;5.80;;;2.92;;
21018;SDS011;10667;51.056;3.732;2022-08-04T02:22:00;6.20;;;2.38;;
21018;SDS011;10667;51.056;3.732;2022-08-04T02:24:31;4.43;;;1.95;;
21018;SDS011;10667;51.056;3.732;2022-08-04T02:26:57;8.27;;;2.30;;
21018;SDS011;10667;51.056;3.732;2022-08-04T02:29:31;6.90;;;2.22;;
21018;SDS011;10667;51.056;3.732;2022-08-04T02:32:05;7.22;;;2.47;;
21018;SDS011;10667;51.056;3.732;2022-08-04T02:34:41;10.75;;;2.55;;
21018;SDS011;10667;51.056;3.732;2022-08-04T02:37:12;7.43;;;2.67;;
21018;SDS011;10667;51.056;3.732;2022-08-04T02:39:41;5.95;;;2.72;;
21018;SDS011;10667;51.056;3.732;2022-08-04T02:42:09;7.25;;;2.65;;
21018;SDS011;10667;51.056;3.732;2022-08-04T02:44:36;6.80;;;2.35;;
21018;SDS011;10667;51.056;3.732;2022-08-04T02:47:03;7.82;;;2.10;;
21018;SDS011;10667;51.056;3.732;2022-08-04T02:49:34;9.93;;;2.95;;
21018;SDS011;10667;51.056;3.732;2022-08-04T02:52:01;7.95;;;3.05;;
21018;SDS011;10667;51.056;3.732;2022-08-04T02:54:30;5.25;;;2.40;;
21018;SDS011;10667;51.056;3.732;2022-08-04T02:57:01;11.10;;;3.35;;
21018;SDS011;10667;51.056;3.732;2022-08-04T02:59:35;5.85;;;2.40;;
21018;SDS011;10667;51.056;3.732;2022-08-04T03:02:13;9.65;;;2.45;;
21018;SDS011;10667;51.056;3.732;2022-08-04T03:04:53;6.40;;;2.95;;
21018;SDS011;10667;51.056;3.732;2022-08-04T03:16:24;9.45;;;3.85;;
21018;SDS011;10667;51.056;3.732;2022-08-04T03:21:58;8.13;;;3.15;;
21018;SDS011;10667;51.056;3.732;2022-08-04T03:24:49;11.13;;;3.10;;
21018;SDS011;10667;51.056;3.732;2022-08-04T03:30:18;8.07;;;3.35;;
21018;SDS011;10667;51.056;3.732;2022-08-04T03:38:54;10.52;;;2.85;;
21018;SDS011;10667;51.056;3.732;2022-08-04T04:10:01;8.55;;;2.90;;
21018;SDS011;10667;51.056;3.732;2022-08-04T04:21:17;10.00;;;2.97;;
21018;SDS011;10667;51.056;3.732;2022-08-04T04:35:11;8.93;;;3.47;;
21018;SDS011;10667;51.056;3.732;2022-08-04T04:45:30;9.10;;;4.47;;
21018;SDS011;10667;51.056;3.732;2022-08-04T04:51:08;11.32;;;5.72;;
21018;SDS011;10667;51.056;3.732;2022-08-04T04:54:03;11.65;;;6.95;;
21018;SDS011;10667;51.056;3.732;2022-08-04T04:59:37;17.48;;;9.93;;
21018;SDS011;10667;51.056;3.732;2022-08-04T05:02:18;18.52;;;10.40;;
21018;SDS011;10667;51.056;3.732;2022-08-04T05:13:42;28.70;;;13.23;;
21018;SDS011;10667;51.056;3.732;2022-08-04T05:16:19;24.20;;;13.98;;
21018;SDS011;10667;51.056;3.732;2022-08-04T05:21:41;26.33;;;14.45;;
21018;SDS011;10667;51.056;3.732;2022-08-04T05:24:14;25.10;;;13.45;;
21018;SDS011;10667;51.056;3.732;2022-08-04T05:26:44;25.60;;;13.90;;
21018;SDS011;10667;51.056;3.732;2022-08-04T05:29:33;25.70;;;13.40;;
21018;SDS011;10667;51.056;3.732;2022-08-04T05:32:04;27.52;;;12.70;;
21018;SDS011;10667;51.056;3.732;2022-08-04T05:34:41;25.63;;;12.30;;
21018;SDS011;10667;51.056;3.732;2022-08-04T05:37:14;22.95;;;12.13;;
21018;SDS011;10667;51.056;3.732;2022-08-04T05:39:43;26.33;;;12.10;;
21018;SDS011;10667;51.056;3.732;2022-08-04T05:42:11;29.27;;;13.07;;
21018;SDS011;10667;51.056;3.732;2022-08-04T05:44:39;30.77;;;12.48;;
21018;SDS011;10667;51.056;3.732;2022-08-04T05:47:06;24.27;;;12.38;;
21018;SDS011;10667;51.056;3.732;2022-08-04T05:49:34;27.60;;;13.85;;
21018;SDS011;10667;51.056;3.732;2022-08-04T05:52:02;27.27;;;14.18;;
21018;SDS011;10667;51.056;3.732;2022-08-04T05:54:31;28.05;;;15.00;;
21018;SDS011;10667;51.056;3.732;2022-08-04T05:56:59;32.08;;;15.35;;
21018;SDS011;10667;51.056;3.732;2022-08-04T05:59:28;40.63;;;15.50;;
21018;SDS011;10667;51.056;3.732;2022-08-04T06:01:57;31.67;;;14.70;;
21018;SDS011;10667;51.056;3.732;2022-08-04T06:04:30;31.40;;;15.98;;
21018;SDS011;10667;51.056;3.732;2022-08-04T06:06:59;25.98;;;14.65;;
21018;SDS011;10667;51.056;3.732;2022-08-04T06:09:24;30.20;;;14.65;;
21018;SDS011;10667;51.056;3.732;2022-08-04T06:11:50;28.38;;;14.45;;
21018;SDS011;10667;51.056;3.732;2022-08-04T06:14:17;30.33;;;15.63;;
21018;SDS011;10667;51.056;3.732;2022-08-04T06:16:47;27.38;;;14.30;;
21018;SDS011;10667;51.056;3.732;2022-08-04T06:19:15;26.92;;;14.25;;
21018;SDS011;10667;51.056;3.732;2022-08-04T06:21:43;24.45;;;14.98;;
21018;SDS011;10667;51.056;3.732;2022-08-04T06:24:14;24.35;;;14.68;;
21018;SDS011;10667;51.056;3.732;2022-08-04T06:26:42;18.35;;;11.88;;
21018;SDS011;10667;51.056;3.732;2022-08-04T06:29:09;18.55;;;12.32;;
21018;SDS011;10667;51.056;3.732;2022-08-04T06:31:44;19.58;;;12.27;;
21018;SDS011;10667;51.056;3.732;2022-08-04T06:34:11;16.80;;;10.85;;
21018;SDS011;10667;51.056;3.732;2022-08-04T06:36:39;14.52;;;10.02;;
21018;SDS011;10667;51.056;3.732;2022-08-04T06:39:07;19.63;;;11.27;;
21018;SDS011;10667;51.056;3.732;2022-08-04T06:41:34;14.57;;;10.23;;
21018;SDS011;10667;51.056;3.732;2022-08-04T06:44:05;16.48;;;11.10;;
21018;SDS011;10667;51.056;3.732;2022-08-04T06:46:33;12.90;;;10.32;;
21018;SDS011;10667;51.056;3.732;2022-08-04T06:49:01;12.20;;;8.43;;
21018;SDS011;10667;51.056;3.732;2022-08-04T06:51:28;13.77;;;9.05;;
21018;SDS011;10667;51.056;3.732;2022-08-04T06:53:55;12.90;;;9.50;;
21018;SDS011;10667;51.056;3.732;2022-08-04T06:56:21;11.05;;;8.75;;
21018;SDS011;10667;51.056;3.732;2022-08-04T06:58:49;12.93;;;7.75;;
21018;SDS011;10667;51.056;3.732;2022-08-04T07:01:17;11.15;;;8.88;;
21018;SDS011;10667;51.056;3.732;2022-08-04T07:03:44;14.48;;;7.97;;
21018;SDS011;10667;51.056;3.732;2022-08-04T07:06:11;13.98;;;9.05;;
21018;SDS011;10667;51.056;3.732;2022-08-04T07:08:38;16.75;;;8.70;;
21018;SDS011;10667;51.056;3.732;2022-08-04T07:11:04;17.65;;;9.25;;
21018;SDS011;10667;51.056;3.732;2022-08-04T07:13:30;17.52;;;9.68;;
21018;SDS011;10667;51.056;3.732;2022-08-04T07:15:57;13.30;;;9.45;;
21018;SDS011;10667;51.056;3.732;2022-08-04T07:18:24;13.07;;;8.75;;
21018;SDS011;10667;51.056;3.732;2022-08-04T07:20:50;14.05;;;9.57;;
21018;SDS011;10667;51.056;3.732;2022-08-04T07:23:22;16.73;;;9.50;;
21018;SDS011;10667;51.056;3.732;2022-08-04T07:25:49;13.05;;;8.93;;
21018;SDS011;10667;51.056;3.732;2022-08-04T07:28:17;13.35;;;8.88;;
21018;SDS011;10667;51.056;3.732;2022-08-04T07:30:44;14.02;;;8.88;;
21018;SDS011;10667;51.056;3.732;2022-08-04T07:33:11;11.38;;;7.95;;
21018;SDS011;10667;51.056;3.732;2022-08-04T07:35:37;13.90;;;8.05;;
21018;SDS011;10667;51.056;3.732;2022-08-04T07:38:03;10.90;;;7.15;;
21018;SDS011;10667;51.056;3.732;2022-08-04T07:40:29;12.48;;;8.38;;
21018;SDS011;10667;51.056;3.732;2022-08-04T07:42:56;11.18;;;7.38;;
21018;SDS011;10667;51.056;3.732;2022-08-04T07:45:23;13.07;;;7.82;;
21018;SDS011;10667;51.056;3.732;2022-08-04T07:47:49;9.20;;;6.63;;
21018;SDS011;10667;51.056;3.732;2022-08-04T07:50:15;20.73;;;6.78;;
21018;SDS011;10667;51.056;3.732;2022-08-04T07:52:41;16.27;;;7.80;;
21018;SDS011;10667;51.056;3.732;2022-08-04T07:55:09;7.05;;;5.47;;
21018;SDS011;10667;51.056;3.732;2022-08-04T07:57:35;23.48;;;6.53;;
21018;SDS011;10667;51.056;3.732;2022-08-04T08:00:02;6.75;;;6.00;;
21018;SDS011;10667;51.056;3.732;2022-08-04T08:02:29;10.93;;;6.45;;
21018;SDS011;10667;51.056;3.732;2022-08-04T08:04:55;8.52;;;6.28;;
21018;SDS011;10667;51.056;3.732;2022-08-04T08:07:22;7.70;;;6.45;;
21018;SDS011;10667;51.056;3.732;2022-08-04T08:09:47;8.73;;;5.72;;
21018;SDS011;10667;51.056;3.732;2022-08-04T08:12:13;9.70;;;6.78;;
21018;SDS011;10667;51.056;3.732;2022-08-04T08:14:40;11.18;;;6.53;;
21018;SDS011;10667;51.056;3.732;2022-08-04T08:17:06;7.03;;;5.72;;
21018;SDS011;10667;51.056;3.732;2022-08-04T08:19:32;10.13;;;6.32;;
21018;SDS011;10667;51.056;3.732;2022-08-04T08:21:59;10.85;;;6.88;;
21018;SDS011;10667;51.056;3.732;2022-08-04T08:24:26;8.65;;;6.72;;
21018;SDS011;10667;51.056;3.732;2022-08-04T08:26:56;17.27;;;6.40;;
21018;SDS011;10667;51.056;3.732;2022-08-04T08:29:23;9.00;;;5.47;;
21018;SDS011;10667;51.056;3.732;2022-08-04T08:31:50;6.68;;;5.68;;
21018;SDS011;10667;51.056;3.732;2022-08-04T08:34:16;7.65;;;5.32;;
21018;SDS011;10667;51.056;3.732;2022-08-04T08:36:45;7.32;;;5.00;;
21018;SDS011;10667;51.056;3.732;2022-08-04T08:39:18;10.40;;;5.15;;
21018;SDS011;10667;51.056;3.732;2022-08-04T08:47:45;10.57;;;6.00;;
21018;SDS011;10667;51.056;3.732;2022-08-04T08:53:07;9.05;;;5.50;;
21018;SDS011;10667;51.056;3.732;2022-08-04T09:15:43;17.15;;;10.55;;
21018;SDS011;10667;51.056;3.732;2022-08-04T09:18:22;11.80;;;8.85;;
21018;SDS011;10667;51.056;3.732;2022-08-04T09:26:08;8.10;;;6.93;;
21018;SDS011;10667;51.056;3.732;2022-08-04T09:28:45;8.15;;;6.32;;
21018;SDS011;10667;51.056;3.732;2022-08-04T09:31:22;11.48;;;6.65;;
21018;SDS011;10667;51.056;3.732;2022-08-04T09:44:45;8.23;;;5.13;;
21018;SDS011;10667;51.056;3.732;2022-08-04T10:01:01;8.57;;;3.40;;
21018;SDS011;10667;51.056;3.732;2022-08-04T10:03:33;4.80;;;3.60;;
21018;SDS011;10667;51.056;3.732;2022-08-04T10:08:58;6.68;;;3.33;;
21018;SDS011;10667;51.056;3.732;2022-08-04T10:11:41;5.53;;;3.00;;
21018;SDS011;10667;51.056;3.732;2022-08-04T10:20:05;6.22;;;2.50;;
21018;SDS011;10667;51.056;3.732;2022-08-04T10:25:51;7.57;;;3.30;;
21018;SDS011;10667;51.056;3.732;2022-08-04T10:28:45;5.82;;;3.00;;
21018;SDS011;10667;51.056;3.732;2022-08-04T10:31:25;5.85;;;2.78;;
21018;SDS011;10667;51.056;3.732;2022-08-04T10:33:59;5.63;;;2.67;;
21018;SDS011;10667;51.056;3.732;2022-08-04T10:36:40;5.55;;;2.85;;
21018;SDS011;10667;51.056;3.732;2022-08-04T10:39:16;4.05;;;2.47;;
21018;SDS011;10667;51.056;3.732;2022-08-04T10:41:53;9.57;;;2.90;;
21018;SDS011;10667;51.056;3.732;2022-08-04T10:44:34;4.60;;;1.98;;
21018;SDS011;10667;51.056;3.732;2022-08-04T10:47:17;3.17;;;2.05;;
21018;SDS011;10667;51.056;3.732;2022-08-04T10:49:47;6.35;;;2.33;;
21018;SDS011;10667;51.056;3.732;2022-08-04T10:55:14;3.75;;;1.80;;
21018;SDS011;10667;51.056;3.732;2022-08-04T10:57:47;6.82;;;2.17;;
21018;SDS011;10667;51.056;3.732;2022-08-04T11:00:25;5.78;;;1.90;;
21018;SDS011;10667;51.056;3.732;2022-08-04T11:08:20;5.82;;;2.00;;
21018;SDS011;10667;51.056;3.732;2022-08-04T11:13:37;5.10;;;1.88;;
21018;SDS011;10667;51.056;3.732;2022-08-04T11:16:10;5.88;;;2.00;;
21018;SDS011;10667;51.056;3.732;2022-08-04T11:21:33;6.47;;;2.03;;
21018;SDS011;10667;51.056;3.732;2022-08-04T11:24:14;3.67;;;1.95;;
21018;SDS011;10667;51.056;3.732;2022-08-04T11:26:44;4.85;;;1.90;;
21018;SDS011;10667;51.056;3.732;2022-08-04T11:31:50;7.30;;;2.42;;
21018;SDS011;10667;51.056;3.732;2022-08-04T11:39:49;4.45;;;1.48;;
21018;SDS011;10667;51.056;3.732;2022-08-04T11:42:22;5.07;;;1.85;;
21018;SDS011;10667;51.056;3.732;2022-08-04T11:52:44;4.45;;;2.05;;
21018;SDS011;10667;51.056;3.732;2022-08-04T11:55:11;5.43;;;2.10;;
21018;SDS011;10667;51.056;3.732;2022-08-04T11:57:40;4.70;;;1.50;;
21018;SDS011;10667;51.056;3.732;2022-08-04T12:00:08;4.32;;;1.45;;
21018;SDS011;10667;51.056;3.732;2022-08-04T12:05:30;5.32;;;1.73;;
21018;SDS011;10667;51.056;3.732;2022-08-04T12:13:40;5.07;;;2.20;;
21018;SDS011;10667;51.056;3.732;2022-08-04T12:21:24;4.57;;;1.88;;
21018;SDS011;10667;51.056;3.732;2022-08-04T12:24:02;8.18;;;2.10;;
21018;SDS011;10667;51.056;3.732;2022-08-04T12:26:36;7.03;;;1.58;;
21018;SDS011;10667;51.056;3.732;2022-08-04T12:29:06;3.63;;;1.70;;
21018;SDS011;10667;51.056;3.732;2022-08-04T12:31:45;7.28;;;1.40;;
21018;SDS011;10667;51.056;3.732;2022-08-04T12:37:08;5.70;;;1.45;;
21018;SDS011;10667;51.056;3.732;2022-08-04T12:39:43;5.82;;;1.55;;
21018;SDS011;10667;51.056;3.732;2022-08-04T12:42:14;5.32;;;1.80;;
21018;SDS011;10667;51.056;3.732;2022-08-04T12:44:45;2.88;;;1.48;;
21018;SDS011;10667;51.056;3.732;2022-08-04T12:47:13;5.88;;;1.83;;
21018;SDS011;10667;51.056;3.732;2022-08-04T12:49:41;4.55;;;1.58;;
21018;SDS011;10667;51.056;3.732;2022-08-04T12:52:11;8.75;;;2.47;;
21018;SDS011;10667;51.056;3.732;2022-08-04T12:54:39;7.60;;;1.95;;
21018;SDS011;10667;51.056;3.732;2022-08-04T12:57:07;3.55;;;1.40;;
21018;SDS011;10667;51.056;3.732;2022-08-04T12:59:44;6.80;;;1.70;;
21018;SDS011;10667;51.056;3.732;2022-08-04T13:02:13;3.60;;;1.27;;
21018;SDS011;10667;51.056;3.732;2022-08-04T13:04:51;3.05;;;1.67;;
21018;SDS011;10667;51.056;3.732;2022-08-04T13:07:20;6.05;;;1.60;;
21018;SDS011;10667;51.056;3.732;2022-08-04T13:09:48;5.82;;;1.50;;
21018;SDS011;10667;51.056;3.732;2022-08-04T13:12:20;4.05;;;1.75;;
21018;SDS011;10667;51.056;3.732;2022-08-04T13:14:49;5.80;;;1.42;;
21018;SDS011;10667;51.056;3.732;2022-08-04T13:17:22;4.80;;;1.65;;
21018;SDS011;10667;51.056;3.732;2022-08-04T13:19:49;2.92;;;1.38;;
21018;SDS011;10667;51.056;3.732;2022-08-04T13:22:26;3.15;;;1.25;;
21018;SDS011;10667;51.056;3.732;2022-08-04T13:24:54;3.30;;;1.65;;
21018;SDS011;10667;51.056;3.732;2022-08-04T13:27:22;3.33;;;1.58;;
21018;SDS011;10667;51.056;3.732;2022-08-04T13:29:49;3.20;;;1.48;;
21018;SDS011;10667;51.056;3.732;2022-08-04T13:32:20;3.72;;;1.70;;
21018;SDS011;10667;51.056;3.732;2022-08-04T13:34:50;11.63;;;2.38;;
21018;SDS011;10667;51.056;3.732;2022-08-04T13:37:18;6.70;;;2.05;;
21018;SDS011;10667;51.056;3.732;2022-08-04T13:39:50;5.15;;;2.00;;
21018;SDS011;10667;51.056;3.732;2022-08-04T13:42:18;7.40;;;2.17;;
21018;SDS011;10667;51.056;3.732;2022-08-04T13:44:48;10.85;;;2.45;;
21018;SDS011;10667;51.056;3.732;2022-08-04T13:47:20;8.70;;;2.55;;
21018;SDS011;10667;51.056;3.732;2022-08-04T13:52:36;6.63;;;2.40;;
21018;SDS011;10667;51.056;3.732;2022-08-04T13:55:03;9.82;;;2.38;;
21018;SDS011;10667;51.056;3.732;2022-08-04T13:57:32;4.65;;;2.20;;
21018;SDS011;10667;51.056;3.732;2022-08-04T14:00:08;7.03;;;2.40;;
21018;SDS011;10667;51.056;3.732;2022-08-04T14:05:18;5.38;;;2.28;;
21018;SDS011;10667;51.056;3.732;2022-08-04T14:07:53;7.50;;;2.10;;
21018;SDS011;10667;51.056;3.732;2022-08-04T14:10:24;3.05;;;1.90;;
21018;SDS011;10667;51.056;3.732;2022-08-04T14:12:51;7.13;;;2.30;;
21018;SDS011;10667;51.056;3.732;2022-08-04T14:18:01;6.03;;;2.00;;
21018;SDS011;10667;51.056;3.732;2022-08-04T14:23:45;7.90;;;2.22;;
21018;SDS011;10667;51.056;3.732;2022-08-04T14:26:15;6.07;;;1.65;;
21018;SDS011;10667;51.056;3.732;2022-08-04T14:28:48;6.07;;;1.80;;
21018;SDS011;10667;51.056;3.732;2022-08-04T14:31:19;13.10;;;2.30;;
21018;SDS011;10667;51.056;3.732;2022-08-04T14:33:47;4.05;;;1.45;;
21018;SDS011;10667;51.056;3.732;2022-08-04T14:36:14;6.43;;;1.65;;
21018;SDS011;10667;51.056;3.732;2022-08-04T14:41:09;4.57;;;2.00;;
21018;SDS011;10667;51.056;3.732;2022-08-04T14:43:43;4.32;;;1.90;;
21018;SDS011;10667;51.056;3.732;2022-08-04T14:46:19;5.85;;;1.95;;
21018;SDS011;10667;51.056;3.732;2022-08-04T14:51:54;6.00;;;2.20;;
21018;SDS011;10667;51.056;3.732;2022-08-04T14:54:33;5.57;;;1.92;;
21018;SDS011;10667;51.056;3.732;2022-08-04T14:57:00;8.00;;;2.13;;
21018;SDS011;10667;51.056;3.732;2022-08-04T14:59:44;4.30;;;2.15;;
21018;SDS011;10667;51.056;3.732;2022-08-04T15:02:12;5.07;;;2.00;;
21018;SDS011;10667;51.056;3.732;2022-08-04T15:04:38;4.88;;;1.98;;
21018;SDS011;10667;51.056;3.732;2022-08-04T15:07:06;5.72;;;2.17;;
21018;SDS011;10667;51.056;3.732;2022-08-04T15:09:32;5.65;;;2.17;;
21018;SDS011;10667;51.056;3.732;2022-08-04T15:11:58;5.30;;;2.35;;
21018;SDS011;10667;51.056;3.732;2022-08-04T15:14:25;9.68;;;2.30;;
21018;SDS011;10667;51.056;3.732;2022-08-04T15:16:51;6.65;;;2.55;;
21018;SDS011;10667;51.056;3.732;2022-08-04T15:19:17;5.82;;;2.85;;
21018;SDS011;10667;51.056;3.732;2022-08-04T15:21:44;5.13;;;2.22;;
21018;SDS011;10667;51.056;3.732;2022-08-04T15:24:09;9.15;;;2.28;;
21018;SDS011;10667;51.056;3.732;2022-08-04T15:26:37;4.70;;;2.13;;
21018;SDS011;10667;51.056;3.732;2022-08-04T15:31:49;7.20;;;2.65;;
21018;SDS011;10667;51.056;3.732;2022-08-04T15:34:17;9.00;;;2.25;;
21018;SDS011;10667;51.056;3.732;2022-08-04T15:47:35;4.90;;;2.30;;
21018;SDS011;10667;51.056;3.732;2022-08-04T15:50:06;7.07;;;1.88;;
21018;SDS011;10667;51.056;3.732;2022-08-04T15:55:36;5.97;;;2.17;;
21018;SDS011;10667;51.056;3.732;2022-08-04T15:58:10;5.63;;;2.00;;
21018;SDS011;10667;51.056;3.732;2022-08-04T16:21:52;3.85;;;1.80;;
21018;SDS011;10667;51.056;3.732;2022-08-04T16:27:01;3.72;;;2.33;;
21018;SDS011;10667;51.056;3.732;2022-08-04T16:29:41;6.00;;;2.35;;
21018;SDS011;10667;51.056;3.732;2022-08-04T16:32:08;5.25;;;2.17;;
21018;SDS011;10667;51.056;3.732;2022-08-04T16:34:39;4.30;;;2.10;;
21018;SDS011;10667;51.056;3.732;2022-08-04T16:37:14;6.13;;;2.10;;
21018;SDS011;10667;51.056;3.732;2022-08-04T16:39:42;4.93;;;2.15;;
21018;SDS011;10667;51.056;3.732;2022-08-04T16:50:15;6.35;;;2.28;;
21018;SDS011;10667;51.056;3.732;2022-08-04T16:52:50;5.22;;;1.98;;
21018;SDS011;10667;51.056;3.732;2022-08-04T16:55:17;3.22;;;1.58;;
21018;SDS011;10667;51.056;3.732;2022-08-04T16:57:47;2.92;;;1.65;;
21018;SDS011;10667;51.056;3.732;2022-08-04T17:00:14;3.65;;;2.10;;
21018;SDS011;10667;51.056;3.732;2022-08-04T17:02:41;4.43;;;2.13;;
21018;SDS011;10667;51.056;3.732;2022-08-04T17:05:22;5.43;;;3.00;;
21018;SDS011;10667;51.056;3.732;2022-08-04T17:07:53;5.35;;;2.15;;
21018;SDS011;10667;51.056;3.732;2022-08-04T17:15:56;6.55;;;2.40;;
21018;SDS011;10667;51.056;3.732;2022-08-04T17:18:24;4.00;;;1.92;;
21018;SDS011;10667;51.056;3.732;2022-08-04T17:20:53;5.85;;;2.08;;
21018;SDS011;10667;51.056;3.732;2022-08-04T17:23:23;4.38;;;1.95;;
21018;SDS011;10667;51.056;3.732;2022-08-04T17:25:57;8.65;;;2.83;;
21018;SDS011;10667;51.056;3.732;2022-08-04T17:28:44;4.13;;;1.95;;
21018;SDS011;10667;51.056;3.732;2022-08-04T17:31:12;5.32;;;2.38;;
21018;SDS011;10667;51.056;3.732;2022-08-04T17:33:38;7.30;;;2.40;;
21018;SDS011;10667;51.056;3.732;2022-08-04T17:36:09;4.63;;;2.22;;
21018;SDS011;10667;51.056;3.732;2022-08-04T17:38:44;7.88;;;2.22;;
21018;SDS011;10667;51.056;3.732;2022-08-04T17:41:12;4.10;;;2.10;;
21018;SDS011;10667;51.056;3.732;2022-08-04T17:43:46;4.28;;;2.30;;
21018;SDS011;10667;51.056;3.732;2022-08-04T17:48:57;7.00;;;2.33;;
21018;SDS011;10667;51.056;3.732;2022-08-04T17:51:51;5.78;;;1.98;;
21018;SDS011;10667;51.056;3.732;2022-08-04T17:54:30;10.88;;;2.38;;
21018;SDS011;10667;51.056;3.732;2022-08-04T17:57:08;5.40;;;2.20;;
21018;SDS011;10667;51.056;3.732;2022-08-04T18:02:04;7.88;;;2.28;;
21018;SDS011;10667;51.056;3.732;2022-08-04T18:07:12;7.72;;;3.47;;
21018;SDS011;10667;51.056;3.732;2022-08-04T18:09:55;5.88;;;2.60;;
21018;SDS011;10667;51.056;3.732;2022-08-04T18:12:30;6.20;;;2.47;;
21018;SDS011;10667;51.056;3.732;2022-08-04T18:15:04;5.40;;;2.60;;
21018;SDS011;10667;51.056;3.732;2022-08-04T18:17:35;5.63;;;2.60;;
21018;SDS011;10667;51.056;3.732;2022-08-04T18:20:03;12.30;;;2.40;;
21018;SDS011;10667;51.056;3.732;2022-08-04T18:22:34;5.10;;;2.22;;
21018;SDS011;10667;51.056;3.732;2022-08-04T18:25:00;5.80;;;2.28;;
21018;SDS011;10667;51.056;3.732;2022-08-04T18:27:28;11.52;;;2.75;;
21018;SDS011;10667;51.056;3.732;2022-08-04T18:29:55;8.18;;;2.72;;
21018;SDS011;10667;51.056;3.732;2022-08-04T18:32:21;8.80;;;2.30;;
21018;SDS011;10667;51.056;3.732;2022-08-04T18:34:49;8.93;;;2.88;;
21018;SDS011;10667;51.056;3.732;2022-08-04T18:37:16;9.20;;;2.92;;
21018;SDS011;10667;51.056;3.732;2022-08-04T18:39:42;6.32;;;2.95;;
21018;SDS011;10667;51.056;3.732;2022-08-04T18:42:08;10.43;;;3.28;;
21018;SDS011;10667;51.056;3.732;2022-08-04T18:44:34;9.50;;;3.53;;
21018;SDS011;10667;51.056;3.732;2022-08-04T18:47:00;6.60;;;2.60;;
21018;SDS011;10667;51.056;3.732;2022-08-04T18:49:28;6.28;;;2.58;;
21018;SDS011;10667;51.056;3.732;2022-08-04T18:51:55;3.60;;;2.30;;
21018;SDS011;10667;51.056;3.732;2022-08-04T18:54:21;6.28;;;2.38;;
21018;SDS011;10667;51.056;3.732;2022-08-04T18:56:49;6.13;;;2.45;;
21018;SDS011;10667;51.056;3.732;2022-08-04T18:59:16;7.40;;;2.85;;
21018;SDS011;10667;51.056;3.732;2022-08-04T19:01:42;6.63;;;3.35;;
21018;SDS011;10667;51.056;3.732;2022-08-04T19:04:08;7.15;;;3.35;;
21018;SDS011;10667;51.056;3.732;2022-08-04T19:06:34;6.28;;;2.85;;
21018;SDS011;10667;51.056;3.732;2022-08-04T19:09:02;6.43;;;2.90;;
21018;SDS011;10667;51.056;3.732;2022-08-04T19:11:28;8.00;;;2.30;;
21018;SDS011;10667;51.056;3.732;2022-08-04T19:13:54;6.43;;;2.65;;
21018;SDS011;10667;51.056;3.732;2022-08-04T19:16:20;9.50;;;2.47;;
21018;SDS011;10667;51.056;3.732;2022-08-04T19:18:46;5.63;;;2.85;;
21018;SDS011;10667;51.056;3.732;2022-08-04T19:21:11;6.00;;;2.90;;
21018;SDS011;10667;51.056;3.732;2022-08-04T19:23:37;7.00;;;2.97;;
21018;SDS011;10667;51.056;3.732;2022-08-04T19:26:03;7.65;;;2.38;;
21018;SDS011;10667;51.056;3.732;2022-08-04T19:28:29;6.30;;;2.60;;
21018;SDS011;10667;51.056;3.732;2022-08-04T19:30:57;5.72;;;2.38;;
21018;SDS011;10667;51.056;3.732;2022-08-04T19:33:23;7.72;;;2.72;;
21018;SDS011;10667;51.056;3.732;2022-08-04T19:35:49;10.18;;;2.50;;
21018;SDS011;10667;51.056;3.732;2022-08-04T19:38:15;6.90;;;2.38;;
21018;SDS011;10667;51.056;3.732;2022-08-04T19:40:42;4.35;;;2.20;;
21018;SDS011;10667;51.056;3.732;2022-08-04T19:43:10;5.50;;;2.22;;
21018;SDS011;10667;51.056;3.732;2022-08-04T19:45:36;5.50;;;2.55;;
21018;SDS011;10667;51.056;3.732;2022-08-04T19:48:02;6.30;;;2.90;;
21018;SDS011;10667;51.056;3.732;2022-08-04T19:50:29;5.00;;;2.30;;
21018;SDS011;10667;51.056;3.732;2022-08-04T19:52:55;5.22;;;2.33;;
21018;SDS011;10667;51.056;3.732;2022-08-04T19:55:22;6.20;;;2.45;;
21018;SDS011;10667;51.056;3.732;2022-08-04T19:57:48;4.10;;;2.47;;
21018;SDS011;10667;51.056;3.732;2022-08-04T20:00:15;5.68;;;2.38;;
21018;SDS011;10667;51.056;3.732;2022-08-04T20:02:43;4.50;;;2.13;;
21018;SDS011;10667;51.056;3.732;2022-08-04T20:05:09;4.40;;;2.13;;
21018;SDS011;10667;51.056;3.732;2022-08-04T20:07:35;7.63;;;2.30;;
21018;SDS011;10667;51.056;3.732;2022-08-04T20:10:02;5.90;;;2.05;;
21018;SDS011;10667;51.056;3.732;2022-08-04T20:12:30;5.30;;;2.72;;
21018;SDS011;10667;51.056;3.732;2022-08-04T20:14:56;5.88;;;2.30;;
21018;SDS011;10667;51.056;3.732;2022-08-04T20:17:22;4.22;;;2.30;;
21018;SDS011;10667;51.056;3.732;2022-08-04T20:19:48;8.45;;;2.53;;
21018;SDS011;10667;51.056;3.732;2022-08-04T20:22:14;7.03;;;3.28;;
21018;SDS011;10667;51.056;3.732;2022-08-04T20:24:42;6.05;;;2.55;;
21018;SDS011;10667;51.056;3.732;2022-08-04T20:27:12;7.57;;;2.80;;
21018;SDS011;10667;51.056;3.732;2022-08-04T20:29:38;2.75;;;1.60;;
21018;SDS011;10667;51.056;3.732;2022-08-04T20:32:04;3.72;;;1.80;;
21018;SDS011;10667;51.056;3.732;2022-08-04T20:34:30;5.78;;;2.00;;
21018;SDS011;10667;51.056;3.732;2022-08-04T20:36:56;5.68;;;1.80;;
21018;SDS011;10667;51.056;3.732;2022-08-04T20:39:21;5.72;;;1.95;;
21018;SDS011;10667;51.056;3.732;2022-08-04T20:41:48;6.00;;;2.70;;